Time;durP1;ratioP1;P1;durP2;ratioP2;P2;SDS_P1;SDS_P2;PMS_P1;PMS_P2;Temp;Humidity;BMP_temperature;BMP_pressure;BME280_temperature;BME280_humidity;BME280_pressure;Samples;Min_cycle;Max_cycle;Signal;HPM_P1;HPM_P2
2023/08/05 00:00:40;;;;;;;4.50;3.60;;;;;;;19.40;70.03;99173.29;438167;1253;140248;-76
2023/08/05 00:10:47;;;;;;;4.20;2.10;;;;;;;19.42;69.94;99162.44;440524;1253;139379;-73
2023/08/05 00:20:52;;;;;;;4.70;2.60;;;;;;;19.39;70.44;99146.27;436985;1253;139639;-71
2023/08/05 00:30:58;;;;;;;3.00;1.80;;;;;;;19.33;69.31;99124.88;436919;1253;139410;-71
2023/08/05 00:41:04;;;;;;;2.90;2.00;;;;;;;19.23;69.24;99127.00;436398;1251;140859;-67
2023/08/05 00:51:10;;;;;;;4.20;1.80;;;;;;;18.98;68.75;99128.72;436234;1253;139890;-65
2023/08/05 01:01:16;;;;;;;2.00;1.90;;;;;;;18.85;69.20;99135.79;436777;1251;139673;-66
2023/08/05 01:11:23;;;;;;;5.20;2.20;;;;;;;18.83;69.79;99139.54;436277;1253;139165;-67
2023/08/05 01:21:37;;;;;;;3.20;1.70;;;;;;;18.82;70.05;99143.52;436437;1251;139408;-67
2023/08/05 01:31:44;;;;;;;2.10;1.40;;;;;;;18.82;69.22;99130.42;436913;1253;139701;-67
2023/08/05 01:41:50;;;;;;;1.50;1.10;;;;;;;18.90;68.25;99091.48;436788;1253;139168;-67
2023/08/05 01:51:56;;;;;;;4.90;1.40;;;;;;;19.07;67.27;99088.82;436294;1253;139080;-67
2023/08/05 02:02:02;;;;;;;2.20;2.00;;;;;;;19.14;66.53;99105.64;436581;1250;140449;-67
2023/08/05 02:12:09;;;;;;;1.70;1.50;;;;;;;19.04;66.55;99094.83;436351;1253;138960;-66
2023/08/05 02:22:14;;;;;;;2.60;1.30;;;;;;;18.90;66.56;99084.88;436384;1253;140135;-68
2023/08/05 02:32:20;;;;;;;3.20;1.40;;;;;;;18.92;66.52;99099.35;436517;1253;141020;-67
2023/08/05 02:42:26;;;;;;;4.30;1.20;;;;;;;19.00;66.31;99099.84;436397;1253;139231;-66
2023/08/05 02:52:32;;;;;;;2.50;1.30;;;;;;;19.04;66.19;99095.44;436161;1253;140551;-67
2023/08/05 03:02:38;;;;;;;1.90;1.30;;;;;;;19.09;66.14;99100.13;436132;1251;140743;-66
2023/08/05 03:12:43;;;;;;;3.30;1.40;;;;;;;19.14;65.94;99107.21;436208;1254;140706;-67
2023/08/05 03:22:49;;;;;;;3.70;1.30;;;;;;;19.19;65.76;99082.93;436139;1254;139161;-65
2023/08/05 03:32:55;;;;;;;2.20;1.50;;;;;;;19.21;65.47;99075.54;436228;1253;139766;-67
2023/08/05 03:43:01;;;;;;;3.70;1.40;;;;;;;19.24;65.18;99090.02;436834;1251;139166;-67
2023/08/05 03:53:07;;;;;;;2.00;1.60;;;;;;;19.25;65.03;99095.92;436209;1251;140583;-67
2023/08/05 04:03:13;;;;;;;1.40;1.30;;;;;;;19.29;64.82;99101.23;436387;1253;139018;-67
2023/08/05 04:13:23;;;;;;;2.20;1.20;;;;;;;19.32;64.59;99081.66;436363;1253;139265;-63
2023/08/05 04:23:31;;;;;;;2.40;1.30;;;;;;;19.38;64.39;99076.96;436535;1251;141829;-67
2023/08/05 04:33:36;;;;;;;27.60;2.30;;;;;;;19.43;64.24;99098.08;436831;1253;139465;-69
2023/08/05 04:43:42;;;;;;;3.60;1.20;;;;;;;19.46;64.67;99095.45;436410;1254;139794;-67
2023/08/05 04:53:48;;;;;;;3.00;1.50;;;;;;;19.38;65.75;99092.40;436253;1253;139128;-66
2023/08/05 05:03:53;;;;;;;1.90;1.60;;;;;;;19.19;66.60;99104.38;436050;1253;139337;-68
2023/08/05 05:14:01;;;;;;;8.30;2.60;;;;;;;18.97;67.71;99111.86;436272;1254;140972;-66
2023/08/05 05:24:07;;;;;;;2.50;2.10;;;;;;;18.81;68.72;99109.27;436194;1253;140889;-67
2023/08/05 05:34:12;;;;;;;3.70;3.10;;;;;;;18.62;69.86;99110.39;436043;1254;139919;-68
2023/08/05 05:44:20;;;;;;;3.20;2.60;;;;;;;18.43;70.92;99087.52;436059;1253;139711;-67
2023/08/05 05:54:26;;;;;;;3.20;2.90;;;;;;;18.37;71.69;99078.90;436191;1251;140883;-67
2023/08/05 06:04:32;;;;;;;3.20;2.60;;;;;;;18.37;72.08;99083.78;436135;1253;139367;-68
2023/08/05 06:14:38;;;;;;;4.10;3.70;;;;;;;18.33;72.78;99118.12;436292;1253;140749;-68
2023/08/05 06:24:44;;;;;;;4.00;2.70;;;;;;;18.22;73.74;99124.26;437202;1251;139749;-68
2023/08/05 06:34:50;;;;;;;4.70;3.10;;;;;;;18.26;74.25;99125.43;437267;1254;139991;-67
2023/08/05 06:44:56;;;;;;;6.10;3.40;;;;;;;18.34;74.65;99123.23;437253;1253;141350;-68
2023/08/05 06:55:05;;;;;;;3.60;3.20;;;;;;;18.35;75.14;99120.13;436370;1253;139664;-68
2023/08/05 07:05:11;;;;;;;5.50;3.60;;;;;;;18.37;75.50;99109.30;436505;1254;140003;-68
2023/08/05 07:15:17;;;;;;;5.90;3.60;;;;;;;18.35;75.87;99117.06;437310;1251;140678;-66
2023/08/05 07:25:23;;;;;;;4.50;3.80;;;;;;;18.17;77.08;99126.02;436485;1253;140856;-67
2023/08/05 07:35:32;;;;;;;4.80;4.30;;;;;;;18.15;78.42;99116.14;437127;1253;290689;-67
2023/08/05 07:45:41;;;;;;;5.00;4.50;;;;;;;18.20;79.35;99100.33;437418;1251;139424;-68
2023/08/05 07:55:48;;;;;;;6.70;5.00;;;;;;;18.35;79.67;99088.69;436408;1251;139812;-68
2023/08/05 08:05:53;;;;;;;4.30;3.90;;;;;;;18.49;80.16;99054.80;436160;1253;139386;-67
2023/08/05 08:16:00;;;;;;;6.20;5.10;;;;;;;18.87;80.63;99009.86;436407;1251;140169;-67
2023/08/05 08:26:06;;;;;;;6.90;4.20;;;;;;;19.61;79.64;98975.52;436624;1250;139709;-67
2023/08/05 08:36:11;;;;;;;7.40;4.00;;;;;;;20.28;77.65;98957.43;436849;1250;139759;-67
2023/08/05 08:46:19;;;;;;;5.30;4.50;;;;;;;20.63;76.70;98939.60;436286;1252;140644;-68
2023/08/05 08:56:25;;;;;;;4.00;3.70;;;;;;;21.07;75.36;98965.16;436713;1251;140287;-69
2023/08/05 09:06:31;;;;;;;4.50;3.10;;;;;;;21.65;74.05;98966.35;436686;1253;140256;-68
2023/08/05 09:16:56;;;;;;;5.80;3.20;;;;;;;22.56;71.90;98980.64;437460;1253;139440;-68
2023/08/05 09:27:02;;;;;;;4.70;3.90;;;;;;;22.92;69.88;98970.41;436700;1250;139413;-67
2023/08/05 09:37:09;;;;;;;6.20;4.60;;;;;;;22.68;68.38;98972.76;436464;1251;139159;-67
2023/08/05 09:47:20;;;;;;;3.50;2.60;;;;;;;21.94;68.27;98983.51;436947;1253;140786;-66
2023/08/05 09:57:26;;;;;;;3.30;2.80;;;;;;;21.69;68.40;98981.45;436355;1249;139392;-69
2023/08/05 10:07:37;;;;;;;4.90;3.10;;;;;;;21.42;68.45;99008.27;436150;1251;140087;-67
2023/08/05 10:17:46;;;;;;;3.80;3.30;;;;;;;20.78;69.40;99020.67;436811;1253;139797;-71
2023/08/05 10:27:51;;;;;;;10.60;4.80;;;;;;;20.60;70.18;99007.30;437410;1250;139827;-71
2023/08/05 10:38:17;;;;;;;3.50;3.20;;;;;;;20.92;70.17;98995.23;436079;1253;140497;-70
2023/08/05 10:48:30;;;;;;;25.20;17.70;;;;;;;20.88;70.13;98985.59;436477;1251;140189;-71
2023/08/05 10:58:43;;;;;;;4.60;4.10;;;;;;;21.44;69.76;98970.82;436398;1251;139304;-70
2023/08/05 11:08:49;;;;;;;4.80;3.80;;;;;;;21.83;69.18;98962.31;436310;1250;139975;-70
2023/08/05 11:19:00;;;;;;;7.50;4.80;;;;;;;21.72;68.86;98947.41;436574;1251;139403;-70
2023/08/05 11:29:07;;;;;;;4.00;3.60;;;;;;;21.49;69.49;98924.47;436154;1250;139445;-70
2023/08/05 11:39:22;;;;;;;6.70;3.50;;;;;;;22.21;69.43;98898.34;435978;1253;139202;-71
2023/08/05 11:49:29;;;;;;;3.80;3.50;;;;;;;23.23;67.55;98880.76;436757;1251;139663;-71
2023/08/05 11:59:45;;;;;;;5.60;3.40;;;;;;;23.22;66.25;98881.44;436049;1253;139172;-72
2023/08/05 12:10:10;;;;;;;2.90;2.50;;;;;;;23.56;65.84;98877.75;436864;1250;139186;-71
2023/08/05 12:20:18;;;;;;;5.20;3.30;;;;;;;23.93;64.62;98872.42;436094;1253;140192;-66
2023/08/05 12:30:24;;;;;;;2.30;2.10;;;;;;;24.13;63.78;98868.48;435971;1253;139886;-66
2023/08/05 12:40:30;;;;;;;2.30;2.00;;;;;;;23.34;63.86;98867.52;435580;1250;140587;-68
2023/08/05 12:50:36;;;;;;;2.30;2.10;;;;;;;23.10;64.14;98856.20;436254;1249;139759;-67
2023/08/05 13:00:41;;;;;;;2.30;1.50;;;;;;;22.90;64.34;98858.36;436052;1250;140988;-68
2023/08/05 13:10:47;;;;;;;2.20;1.60;;;;;;;22.57;64.56;98856.57;435782;1250;139569;-64
2023/08/05 13:20:53;;;;;;;3.20;1.60;;;;;;;22.40;65.17;98854.28;435852;1253;141481;-65
2023/08/05 13:31:04;;;;;;;2.20;2.00;;;;;;;22.00;65.36;98851.75;436083;1253;140027;-67
2023/08/05 13:41:10;;;;;;;2.60;2.20;;;;;;;21.44;65.90;98840.95;439855;1253;140925;-72
2023/08/05 13:51:16;;;;;;;1.70;1.40;;;;;;;21.01;66.75;98830.57;439403;1250;140034;-75
2023/08/05 14:01:23;;;;;;;5.60;1.70;;;;;;;20.83;67.38;98838.33;440334;1249;141953;-70
2023/08/05 14:11:28;;;;;;;2.90;2.30;;;;;;;20.75;68.00;98829.56;435544;1253;139225;-69
2023/08/05 14:21:35;;;;;;;3.40;2.50;;;;;;;20.34;69.16;98820.84;436248;1253;141176;-70
2023/08/05 14:31:41;;;;;;;2.90;2.20;;;;;;;20.16;70.41;98818.50;435753;1250;140212;-72
2023/08/05 14:41:48;;;;;;;5.50;2.50;;;;;;;20.06;71.39;98815.52;437861;1253;140564;-75
2023/08/05 14:51:54;;;;;;;3.90;3.50;;;;;;;20.00;72.41;98811.43;439936;1253;138977;-74
2023/08/05 15:02:00;;;;;;;4.00;2.70;;;;;;;19.96;73.32;98812.59;439923;1250;140430;-72
2023/08/05 15:12:07;;;;;;;2.40;2.30;;;;;;;20.02;73.77;98786.33;440173;1251;139127;-77
2023/08/05 15:22:13;;;;;;;3.00;2.30;;;;;;;19.90;73.92;98796.90;439997;1250;139139;-72
2023/08/05 15:32:22;;;;;;;2.50;2.30;;;;;;;19.63;74.52;98782.43;435883;1250;141138;-71
2023/08/05 15:42:28;;;;;;;3.30;2.90;;;;;;;19.44;75.33;98758.63;436507;1251;139799;-67
2023/08/05 15:52:35;;;;;;;4.30;3.10;;;;;;;19.25;76.58;98773.59;435623;1253;140037;-68
2023/08/05 16:02:40;;;;;;;6.30;3.60;;;;;;;19.10;77.88;98770.99;437072;1250;139607;-71
2023/08/05 16:12:47;;;;;;;4.80;3.80;;;;;;;18.84;79.10;98766.06;435869;1253;140170;-70
2023/08/05 16:22:55;;;;;;;4.70;4.30;;;;;;;18.61;80.63;98754.50;436126;1250;140340;-69
2023/08/05 16:33:00;;;;;;;4.50;4.10;;;;;;;18.43;82.06;98757.91;436211;1250;139416;-70
2023/08/05 16:43:08;;;;;;;5.40;4.90;;;;;;;18.28;83.93;98744.36;436154;1251;139148;-69
2023/08/05 16:53:15;;;;;;;4.70;4.30;;;;;;;18.17;85.58;98737.16;436569;1253;139203;-71
2023/08/05 17:03:21;;;;;;;5.30;4.80;;;;;;;18.12;87.55;98732.96;435959;1252;140338;-71
2023/08/05 17:13:26;;;;;;;4.80;4.50;;;;;;;18.07;89.18;98723.30;435619;1253;139706;-67
2023/08/05 17:23:33;;;;;;;5.90;5.40;;;;;;;17.91;90.50;98713.11;435951;1250;139484;-78
2023/08/05 17:33:38;;;;;;;6.80;6.10;;;;;;;17.85;92.02;98721.67;436630;1251;140197;-67
2023/08/05 17:43:44;;;;;;;8.90;6.60;;;;;;;17.82;92.89;98707.53;435662;1253;140915;-68
2023/08/05 17:53:50;;;;;;;6.50;5.90;;;;;;;17.86;93.62;98685.16;435798;1253;139424;-68
2023/08/05 18:03:56;;;;;;;7.40;6.80;;;;;;;17.86;94.11;98699.10;435600;1250;140560;-70
2023/08/05 18:14:02;;;;;;;7.50;6.80;;;;;;;17.80;94.34;98704.14;436799;1251;139527;-68
2023/08/05 18:24:08;;;;;;;7.70;7.00;;;;;;;17.71;94.85;98691.34;435860;1253;139015;-68
2023/08/05 18:34:14;;;;;;;10.60;7.70;;;;;;;17.66;95.60;98687.96;436035;1251;140093;-69
2023/08/05 18:44:20;;;;;;;8.20;7.30;;;;;;;17.63;96.14;98670.91;437536;1253;139295;-69
2023/08/05 18:54:26;;;;;;;9.00;8.30;;;;;;;17.56;96.91;98674.00;436025;1251;139767;-69
2023/08/05 19:04:31;;;;;;;8.90;8.00;;;;;;;17.51;97.55;98672.58;436300;1253;139574;-68
2023/08/05 19:14:37;;;;;;;8.00;7.30;;;;;;;17.49;98.03;98667.83;435952;1251;140104;-67
2023/08/05 19:24:43;;;;;;;8.80;8.00;;;;;;;17.49;98.41;98637.34;438159;1253;139674;-68
2023/08/05 19:34:54;;;;;;;8.60;7.90;;;;;;;17.49;98.66;98625.67;436032;1251;264657;-71
2023/08/05 19:44:59;;;;;;;8.60;7.80;;;;;;;17.46;98.86;98630.81;437046;1253;139674;-67
2023/08/05 19:55:07;;;;;;;8.10;7.50;;;;;;;17.42;99.39;98630.08;435680;1250;139786;-66
2023/08/05 20:05:13;;;;;;;11.50;10.10;;;;;;;17.43;99.72;98617.41;436765;1253;140332;-65
2023/08/05 20:15:18;;;;;;;10.70;9.60;;;;;;;17.45;99.95;98600.83;436309;1251;141745;-64
2023/08/05 20:25:25;;;;;;;15.60;10.70;;;;;;;17.50;100.00;98590.77;435672;1253;139633;-64
2023/08/05 20:35:32;;;;;;;15.60;10.90;;;;;;;17.53;100.00;98580.42;435890;1253;139743;-64
2023/08/05 20:45:39;;;;;;;15.30;12.60;;;;;;;17.53;100.00;98556.16;436598;1253;140969;-65
2023/08/05 20:55:47;;;;;;;14.00;12.40;;;;;;;17.55;100.00;98559.92;436669;1250;140377;-63
2023/08/05 21:06:01;;;;;;;18.10;13.10;;;;;;;17.56;100.00;98526.44;436006;1253;141256;-64
2023/08/05 21:16:09;;;;;;;14.90;12.70;;;;;;;17.55;100.00;98513.27;436066;1253;140566;-65
2023/08/05 21:26:16;;;;;;;17.40;14.30;;;;;;;17.55;100.00;98534.04;435579;1256;139781;-65
2023/08/05 21:36:21;;;;;;;15.50;13.70;;;;;;;17.53;100.00;98543.02;435547;1253;140101;-64
2023/08/05 21:46:27;;;;;;;16.30;13.70;;;;;;;17.56;100.00;98514.59;435672;1253;141385;-64
2023/08/05 21:56:34;;;;;;;18.80;14.70;;;;;;;17.57;100.00;98451.56;435626;1256;139850;-64
2023/08/05 22:06:39;;;;;;;17.10;12.80;;;;;;;17.56;100.00;98437.14;435836;1253;140247;-64
2023/08/05 22:16:45;;;;;;;22.30;14.30;;;;;;;17.54;100.00;98413.31;435594;1256;140149;-64
2023/08/05 22:26:57;;;;;;;16.60;15.00;;;;;;;17.51;100.00;98405.58;435427;1253;140096;-64
2023/08/05 22:37:03;;;;;;;16.30;14.40;;;;;;;17.49;100.00;98422.14;435881;1253;139747;-65
2023/08/05 22:47:09;;;;;;;16.30;14.70;;;;;;;17.45;100.00;98471.43;436610;1254;139858;-65
2023/08/05 22:57:14;;;;;;;15.70;13.80;;;;;;;17.44;100.00;98490.98;436025;1253;140591;-65
2023/08/05 23:07:20;;;;;;;14.00;11.70;;;;;;;17.44;100.00;98451.31;436945;1254;139528;-65
2023/08/05 23:17:26;;;;;;;10.90;9.80;;;;;;;17.45;100.00;98420.98;436311;1253;139772;-65
2023/08/05 23:27:32;;;;;;;10.90;9.80;;;;;;;17.50;100.00;98386.14;435795;1251;141163;-66
2023/08/05 23:37:38;;;;;;;10.20;9.10;;;;;;;17.55;100.00;98342.44;435815;1253;139815;-63
2023/08/05 23:47:44;;;;;;;8.70;7.50;;;;;;;17.52;100.00;98351.44;436470;1254;139343;-67
2023/08/05 23:57:50;;;;;;;8.00;6.00;;;;;;;17.48;100.00;98326.11;436057;1253;139755;-68
